Time;durP1;ratioP1;P1;durP2;ratioP2;P2;SDS_P1;SDS_P2;PMS_P1;PMS_P2;Temp;Humidity;BMP_temperature;BMP_pressure;BME280_temperature;BME280_humidity;BME280_pressure;Samples;Min_cycle;Max_cycle;Signal;HPM_P1;HPM_P2
2021/06/21 00:00:11;;;;;;;12.73;8.73;;;16.00;99.90;;;;;;2103319;28;20028;-62
2021/06/21 00:01:11;;;;;;;16.27;9.25;;;16.10;99.90;;;;;;2106510;28;20026;-62
2021/06/21 00:02:12;;;;;;;15.55;8.93;;;16.00;99.90;;;;;;2104171;28;20535;-62
2021/06/21 00:03:13;;;;;;;16.02;8.48;;;16.10;99.90;;;;;;2104334;28;20353;-62
2021/06/21 00:04:14;;;;;;;16.15;8.55;;;16.00;99.90;;;;;;2102965;28;20012;-62
2021/06/21 00:05:15;;;;;;;13.48;8.70;;;16.10;99.90;;;;;;2103170;28;20503;-62
2021/06/21 00:06:16;;;;;;;14.75;8.80;;;16.10;99.90;;;;;;2106238;28;20125;-62
2021/06/21 00:07:17;;;;;;;16.77;8.10;;;16.10;99.90;;;;;;2103573;28;20488;-62
2021/06/21 00:08:18;;;;;;;18.87;8.90;;;16.00;99.90;;;;;;2109851;28;20107;-62
2021/06/21 00:09:18;;;;;;;13.27;8.88;;;16.10;99.90;;;;;;2110761;28;20260;-62
2021/06/21 00:10:19;;;;;;;12.48;8.50;;;16.00;99.90;;;;;;2103148;28;20033;-62
2021/06/21 00:11:21;;;;;;;16.58;8.80;;;16.00;99.90;;;;;;2105837;28;20027;-62
2021/06/21 00:12:21;;;;;;;15.07;8.65;;;16.00;99.90;;;;;;2103764;28;20519;-62
2021/06/21 00:13:22;;;;;;;15.63;7.97;;;16.00;99.90;;;;;;2098877;28;20024;-62
2021/06/21 00:14:23;;;;;;;13.60;8.65;;;16.00;99.90;;;;;;2097415;28;20116;-62
2021/06/21 00:15:25;;;;;;;11.93;8.13;;;16.00;99.90;;;;;;2101973;28;20044;-62
2021/06/21 00:16:27;;;;;;;19.13;9.05;;;16.00;99.90;;;;;;2102537;28;20562;-62
2021/06/21 00:17:28;;;;;;;14.63;8.50;;;16.00;99.90;;;;;;2097720;28;20024;-62
2021/06/21 00:18:29;;;;;;;14.27;9.18;;;15.90;99.90;;;;;;2097747;28;20021;-62
2021/06/21 00:19:30;;;;;;;11.98;7.95;;;15.90;99.90;;;;;;2099589;28;20039;-62
2021/06/21 00:20:32;;;;;;;14.02;8.95;;;15.90;99.90;;;;;;2105816;28;20027;-62
2021/06/21 00:21:32;;;;;;;16.27;9.57;;;15.90;99.90;;;;;;2102212;28;20688;-62
2021/06/21 00:22:33;;;;;;;12.88;9.30;;;15.80;99.90;;;;;;2098801;28;20028;-62
2021/06/21 00:23:34;;;;;;;15.25;9.15;;;15.80;99.90;;;;;;2099939;28;20538;-62
2021/06/21 00:24:35;;;;;;;12.57;9.23;;;15.80;99.90;;;;;;2097513;28;20020;-61
2021/06/21 00:25:35;;;;;;;13.70;9.00;;;15.80;99.90;;;;;;2097827;28;20029;-62
2021/06/21 00:26:36;;;;;;;12.27;8.63;;;15.80;99.90;;;;;;2103859;28;20016;-61
2021/06/21 00:27:37;;;;;;;15.23;8.95;;;15.80;99.90;;;;;;2106274;28;20017;-61
2021/06/21 00:28:38;;;;;;;12.07;8.60;;;15.80;99.90;;;;;;2097029;28;20032;-62
2021/06/21 00:29:39;;;;;;;14.75;9.23;;;15.80;99.90;;;;;;2102439;28;20504;-61
2021/06/21 00:30:41;;;;;;;16.67;9.02;;;15.80;99.90;;;;;;2105320;28;20027;-62
2021/06/21 00:31:42;;;;;;;12.48;8.82;;;15.80;99.90;;;;;;2102102;28;20078;-62
2021/06/21 00:32:45;;;;;;;15.73;8.88;;;15.80;99.90;;;;;;2097966;28;20035;-62
2021/06/21 00:33:46;;;;;;;13.45;9.85;;;15.80;99.90;;;;;;2099066;28;20085;-61
2021/06/21 00:34:47;;;;;;;10.82;8.40;;;15.80;99.90;;;;;;2101231;28;20028;-62
2021/06/21 00:35:47;;;;;;;14.95;8.43;;;15.80;99.90;;;;;;2102453;28;20020;-60
2021/06/21 00:36:48;;;;;;;13.77;8.70;;;15.80;99.90;;;;;;2102713;28;20020;-62
2021/06/21 00:37:49;;;;;;;15.93;9.30;;;15.80;99.90;;;;;;2100858;28;20423;-62
2021/06/21 00:38:50;;;;;;;14.13;9.07;;;15.80;99.90;;;;;;2101038;28;20035;-62
2021/06/21 00:39:51;;;;;;;13.25;8.43;;;15.80;99.90;;;;;;2105262;28;20035;-62
2021/06/21 00:40:51;;;;;;;12.23;8.30;;;15.80;99.90;;;;;;2099678;28;20029;-61
2021/06/21 00:41:52;;;;;;;15.30;9.50;;;15.80;99.90;;;;;;2097638;28;20075;-62
2021/06/21 00:42:53;;;;;;;16.15;9.07;;;15.80;99.90;;;;;;2097847;28;20052;-62
2021/06/21 00:43:54;;;;;;;15.05;8.95;;;15.80;99.90;;;;;;2101901;28;20027;-62
2021/06/21 00:44:55;;;;;;;16.15;8.90;;;15.80;99.90;;;;;;2105954;28;20586;-62
2021/06/21 00:45:55;;;;;;;12.65;8.93;;;15.80;99.90;;;;;;2098233;28;20389;-61
2021/06/21 00:46:56;;;;;;;12.30;8.43;;;15.80;99.90;;;;;;2097277;28;20546;-61
2021/06/21 00:47:57;;;;;;;15.88;8.45;;;15.80;99.90;;;;;;2097058;28;20029;-63
2021/06/21 00:48:57;;;;;;;15.75;9.13;;;15.90;99.90;;;;;;2101859;28;20024;-61
2021/06/21 00:49:58;;;;;;;17.83;9.13;;;15.90;99.90;;;;;;2098214;28;20040;-62
2021/06/21 00:50:59;;;;;;;16.58;9.15;;;15.90;99.90;;;;;;2104731;28;20058;-61
2021/06/21 00:52:00;;;;;;;14.40;8.93;;;15.90;99.90;;;;;;2105928;28;20028;-61
2021/06/21 00:53:02;;;;;;;17.90;9.38;;;15.90;99.90;;;;;;2106079;28;20508;-61
2021/06/21 00:54:02;;;;;;;;;;;15.90;99.90;;;;;;2101676;28;20028;-62
2021/06/21 00:55:04;;;;;;;15.05;8.25;;;15.90;99.90;;;;;;2097775;28;20450;-62
2021/06/21 00:56:06;;;;;;;12.68;8.30;;;16.00;99.90;;;;;;2104563;28;20020;-61
2021/06/21 00:57:07;;;;;;;12.95;8.00;;;16.00;99.90;;;;;;2103970;28;20448;-62
2021/06/21 00:58:08;;;;;;;13.18;8.38;;;16.00;99.90;;;;;;2095953;28;20031;-62
2021/06/21 00:59:09;;;;;;;13.65;8.20;;;16.00;99.90;;;;;;2097098;28;20063;-62
2021/06/21 01:00:13;;;;;;;12.77;8.43;;;16.10;99.90;;;;;;2101588;28;20145;-62
2021/06/21 01:01:14;;;;;;;13.07;7.55;;;16.00;99.90;;;;;;2105545;28;20028;-63
2021/06/21 01:02:17;;;;;;;11.82;7.82;;;16.10;99.90;;;;;;2104795;28;20480;-62
2021/06/21 01:03:18;;;;;;;12.05;7.43;;;16.10;99.90;;;;;;2105539;28;20104;-62
2021/06/21 01:04:19;;;;;;;11.52;7.88;;;16.10;99.90;;;;;;2100707;28;20019;-62
2021/06/21 01:05:25;;;;;;;10.20;7.40;;;16.20;99.90;;;;;;2095987;28;20028;-62
2021/06/21 01:06:27;;;;;;;11.60;7.25;;;16.10;99.90;;;;;;2102755;28;21127;-62
2021/06/21 01:07:27;;;;;;;14.07;8.25;;;16.20;99.90;;;;;;2099347;28;20502;-62
2021/06/21 01:08:28;;;;;;;13.25;7.50;;;16.20;99.90;;;;;;2105840;28;20031;-62
2021/06/21 01:09:29;;;;;;;14.75;7.55;;;16.20;99.90;;;;;;2099474;28;20025;-62
2021/06/21 01:10:30;;;;;;;10.25;7.13;;;16.20;99.90;;;;;;2088695;28;20075;-62
2021/06/21 01:11:51;;;;;;;11.77;6.68;;;16.30;99.90;;;;;;2099721;28;20024;-61
2021/06/21 01:13:10;;;;;;;10.18;6.32;;;16.30;99.90;;;;;;2100178;28;20100;-62
2021/06/21 01:14:39;;;;;;;13.00;6.70;;;16.30;99.90;;;;;;2098451;28;20021;-62
2021/06/21 01:15:42;;;;;;;9.05;5.82;;;16.30;99.90;;;;;;2098239;28;20020;-62
2021/06/21 01:16:49;;;;;;;12.18;6.07;;;16.40;99.90;;;;;;2104410;28;20584;-61
2021/06/21 01:18:13;;;;;;;8.18;6.13;;;16.40;99.90;;;;;;2102616;28;20016;-61
2021/06/21 01:19:51;;;;;;;10.85;5.97;;;16.40;99.90;;;;;;2098550;28;20052;-62
2021/06/21 01:21:14;;;;;;;6.55;4.88;;;16.40;99.90;;;;;;2095580;28;20070;-60
2021/06/21 01:22:30;;;;;;;9.18;6.03;;;16.50;99.90;;;;;;2104518;28;20039;-62
2021/06/21 01:23:42;;;;;;;8.75;5.30;;;16.50;99.90;;;;;;2097317;28;20024;-60
2021/06/21 01:25:01;;;;;;;9.05;5.50;;;16.50;99.90;;;;;;2097614;28;20060;-61
2021/06/21 01:26:15;;;;;;;7.93;5.35;;;16.50;99.90;;;;;;2098248;28;20082;-61
2021/06/21 01:27:25;;;;;;;6.47;4.70;;;16.50;99.90;;;;;;2097436;28;20035;-62
2021/06/21 01:29:03;;;;;;;10.38;5.10;;;16.60;99.90;;;;;;2097765;28;20463;-62
2021/06/21 01:30:09;;;;;;;9.32;4.75;;;16.60;99.90;;;;;;2098041;28;20055;-61
2021/06/21 01:31:19;;;;;;;9.00;4.72;;;16.60;99.90;;;;;;2096723;28;20024;-63
2021/06/21 01:32:32;;;;;;;9.50;4.22;;;16.60;99.90;;;;;;2105518;28;20035;-61
2021/06/21 01:33:34;;;;;;;;;;;16.60;99.90;;;;;;2099304;28;20024;-61
2021/06/21 01:34:39;;;;;;;6.20;4.10;;;16.60;99.90;;;;;;2103724;28;20379;-62
2021/06/21 01:35:47;;;;;;;9.93;4.72;;;16.60;99.90;;;;;;2105681;28;20023;-61
2021/06/21 01:36:52;;;;;;;27.08;5.43;;;16.70;99.90;;;;;;2103349;28;20020;-61
2021/06/21 01:37:55;;;;;;;7.63;4.22;;;16.60;99.90;;;;;;2101036;28;20028;-62
2021/06/21 01:38:59;;;;;;;5.32;3.90;;;16.70;99.90;;;;;;2105056;28;20076;-62
2021/06/21 01:40:02;;;;;;;8.00;4.55;;;16.70;99.90;;;;;;2104121;28;20031;-62
2021/06/21 01:41:05;;;;;;;8.25;3.85;;;16.70;99.90;;;;;;2096727;28;20024;-61
2021/06/21 01:42:13;;;;;;;5.90;3.60;;;16.70;99.90;;;;;;2096877;28;20039;-61
2021/06/21 01:43:19;;;;;;;8.07;4.00;;;16.70;99.90;;;;;;2097353;28;20499;-63
2021/06/21 01:44:23;;;;;;;7.07;4.05;;;16.70;99.90;;;;;;2097376;28;20062;-61
2021/06/21 01:45:26;;;;;;;5.60;3.83;;;16.70;99.90;;;;;;2096874;28;20190;-61
2021/06/21 01:46:31;;;;;;;7.05;4.00;;;16.70;99.90;;;;;;2095302;28;20117;-62
2021/06/21 01:47:33;;;;;;;6.50;3.92;;;16.70;99.90;;;;;;2103587;28;20857;-61
2021/06/21 01:48:40;;;;;;;5.78;3.85;;;16.70;99.90;;;;;;2103457;28;20029;-62
2021/06/21 01:49:45;;;;;;;10.93;3.80;;;16.70;99.90;;;;;;2105828;28;20016;-62
2021/06/21 01:50:47;;;;;;;8.55;3.50;;;16.70;99.90;;;;;;2104694;28;20430;-62
2021/06/21 01:51:50;;;;;;;6.53;3.47;;;16.70;99.90;;;;;;2105178;28;20021;-62
2021/06/21 01:53:15;;;;;;;7.65;3.47;;;16.70;99.90;;;;;;2096504;28;20435;-62
2021/06/21 01:54:16;;;;;;;10.77;4.00;;;16.70;99.90;;;;;;2096281;28;20035;-61
2021/06/21 01:55:21;;;;;;;7.93;3.50;;;16.70;99.90;;;;;;2094824;28;20036;-61
2021/06/21 01:56:25;;;;;;;6.13;3.17;;;16.70;99.90;;;;;;2097247;28;20403;-61
2021/06/21 01:57:30;;;;;;;6.10;3.38;;;16.70;99.90;;;;;;2095602;28;20052;-61
2021/06/21 01:58:34;;;;;;;8.95;3.38;;;16.70;99.90;;;;;;2096545;28;20090;-61
2021/06/21 01:59:35;;;;;;;6.95;3.10;;;16.70;99.90;;;;;;2094556;28;20486;-62
2021/06/21 02:00:38;;;;;;;8.40;2.80;;;16.70;99.90;;;;;;2103521;28;20379;-61
2021/06/21 02:01:42;;;;;;;10.02;2.92;;;16.70;99.90;;;;;;2096998;28;20045;-61
2021/06/21 02:02:43;;;;;;;11.65;3.50;;;16.70;99.90;;;;;;2095885;28;20460;-62
2021/06/21 02:03:48;;;;;;;6.03;2.90;;;16.70;99.90;;;;;;2096624;28;20115;-62
2021/06/21 02:04:54;;;;;;;7.93;3.45;;;16.70;99.90;;;;;;2097165;28;20093;-61
2021/06/21 02:05:56;;;;;;;4.85;3.10;;;16.70;99.90;;;;;;2099953;28;20113;-61
2021/06/21 02:06:58;;;;;;;;;;;16.70;99.90;;;;;;2105532;28;20086;-62
2021/06/21 02:08:00;;;;;;;7.47;3.30;;;16.70;99.90;;;;;;2098095;28;19991;-62
2021/06/21 02:09:04;;;;;;;7.03;3.40;;;16.70;99.90;;;;;;2095565;28;20024;-62
2021/06/21 02:10:06;;;;;;;7.90;3.15;;;16.70;99.90;;;;;;2103919;28;20432;-62
2021/06/21 02:11:08;;;;;;;5.57;2.90;;;16.70;99.90;;;;;;2099378;28;20024;-62
2021/06/21 02:12:10;;;;;;;6.03;2.83;;;16.70;99.90;;;;;;2096634;28;20032;-62
2021/06/21 02:13:12;;;;;;;3.83;2.75;;;16.70;99.90;;;;;;2104465;28;20061;-62
2021/06/21 02:14:13;;;;;;;5.43;3.13;;;16.70;99.90;;;;;;2102834;28;20027;-62
2021/06/21 02:15:15;;;;;;;8.48;2.83;;;16.70;99.90;;;;;;2096995;28;20017;-62
2021/06/21 02:16:16;;;;;;;6.00;2.40;;;16.70;99.90;;;;;;2101730;28;20020;-62
2021/06/21 02:17:21;;;;;;;6.90;2.13;;;16.70;99.90;;;;;;2105361;28;20024;-62
2021/06/21 02:18:22;;;;;;;5.38;2.13;;;16.70;99.90;;;;;;2095077;28;20483;-62
2021/06/21 02:19:25;;;;;;;9.93;2.33;;;16.70;99.90;;;;;;2107205;28;20035;-62
2021/06/21 02:20:27;;;;;;;5.32;2.30;;;16.70;99.90;;;;;;2096957;28;20024;-62
2021/06/21 02:21:28;;;;;;;8.43;2.42;;;16.70;99.90;;;;;;2098967;28;20149;-62
2021/06/21 02:22:30;;;;;;;5.30;1.80;;;16.70;99.90;;;;;;2097482;28;20436;-62
2021/06/21 02:23:31;;;;;;;7.15;2.00;;;16.70;99.90;;;;;;2101889;28;20081;-62
2021/06/21 02:24:35;;;;;;;6.22;2.30;;;16.60;99.90;;;;;;2101186;28;20415;-62
2021/06/21 02:25:37;;;;;;;5.55;1.90;;;16.70;99.90;;;;;;2100582;28;20016;-62
2021/06/21 02:26:38;;;;;;;3.03;1.80;;;16.60;99.90;;;;;;2098360;28;20028;-62
2021/06/21 02:27:39;;;;;;;5.40;1.90;;;16.60;99.90;;;;;;2097461;28;20559;-62
2021/06/21 02:28:41;;;;;;;4.50;2.20;;;16.60;99.90;;;;;;2105310;28;20032;-62
2021/06/21 02:29:43;;;;;;;5.35;1.80;;;16.60;99.90;;;;;;2101151;28;20396;-62
2021/06/21 02:30:45;;;;;;;6.13;1.85;;;16.60;99.90;;;;;;2094565;28;20081;-62
2021/06/21 02:31:47;;;;;;;4.80;1.88;;;16.60;99.90;;;;;;2103627;28;20016;-62
2021/06/21 02:32:48;;;;;;;6.30;2.42;;;16.60;99.90;;;;;;2097616;28;20043;-62
2021/06/21 02:33:49;;;;;;;4.93;2.05;;;16.60;99.90;;;;;;2103218;28;20675;-62
2021/06/21 02:34:51;;;;;;;9.82;2.03;;;16.60;99.90;;;;;;2091744;28;20027;-62
2021/06/21 02:35:52;;;;;;;7.03;2.10;;;16.60;99.90;;;;;;2104403;28;20020;-62
2021/06/21 02:36:52;;;;;;;5.38;1.80;;;16.60;99.90;;;;;;2096638;28;20097;-61
2021/06/21 02:37:54;;;;;;;6.47;1.73;;;16.50;99.90;;;;;;2097993;28;20507;-61
2021/06/21 02:38:55;;;;;;;6.53;1.88;;;16.50;99.90;;;;;;2095447;28;20470;-61
2021/06/21 02:39:55;;;;;;;4.13;2.00;;;16.50;99.90;;;;;;2095741;28;20062;-61
2021/06/21 02:40:56;;;;;;;5.78;1.73;;;16.50;99.90;;;;;;2096797;28;20043;-62
2021/06/21 02:41:57;;;;;;;10.60;1.52;;;16.50;99.90;;;;;;2099588;28;20089;-62
2021/06/21 02:42:58;;;;;;;5.90;1.83;;;16.50;99.90;;;;;;2102470;28;20049;-61
2021/06/21 02:44:00;;;;;;;5.10;1.50;;;16.50;99.90;;;;;;2102506;28;20024;-62
2021/06/21 02:45:01;;;;;;;5.05;1.50;;;16.40;99.90;;;;;;2096427;28;20483;-62
2021/06/21 02:46:02;;;;;;;3.13;1.60;;;16.40;99.90;;;;;;2104876;28;20523;-62
2021/06/21 02:47:04;;;;;;;6.95;1.73;;;16.40;99.90;;;;;;2101947;28;20031;-62
2021/06/21 02:48:07;;;;;;;6.70;1.98;;;16.40;99.90;;;;;;2097396;28;20430;-62
2021/06/21 02:49:07;;;;;;;2.95;1.48;;;16.40;99.90;;;;;;2101813;28;20137;-62
2021/06/21 02:50:09;;;;;;;4.35;1.42;;;16.40;99.90;;;;;;2096750;28;20648;-62
2021/06/21 02:51:16;;;;;;;8.18;2.10;;;16.40;99.90;;;;;;2096758;28;20017;-62
2021/06/21 02:52:53;;;;;;;5.47;1.45;;;16.40;99.90;;;;;;2096150;28;20031;-62
2021/06/21 02:54:07;;;;;;;7.82;2.00;;;16.40;99.90;;;;;;2099265;28;20494;-61
2021/06/21 02:55:39;;;;;;;4.75;1.50;;;16.50;99.90;;;;;;2100832;28;20104;-61
2021/06/21 02:56:48;;;;;;;3.28;1.40;;;16.40;99.90;;;;;;2103786;28;20119;-61
2021/06/21 02:58:02;;;;;;;6.32;1.50;;;16.40;99.90;;;;;;2095938;28;20036;-63
2021/06/21 02:59:09;;;;;;;5.78;1.40;;;16.50;99.90;;;;;;2096182;28;20021;-61
2021/06/21 03:00:11;;;;;;;4.78;1.52;;;16.50;99.90;;;;;;2096780;28;20025;-62
2021/06/21 03:01:14;;;;;;;4.22;1.50;;;16.50;99.90;;;;;;2103465;28;20064;-61
2021/06/21 03:02:18;;;;;;;4.25;1.40;;;16.50;99.90;;;;;;2100609;28;20035;-62
2021/06/21 03:03:30;;;;;;;5.25;1.45;;;16.50;99.90;;;;;;2100899;28;20012;-62
2021/06/21 03:04:32;;;;;;;6.07;1.30;;;16.50;99.90;;;;;;2104537;28;20455;-62
2021/06/21 03:05:33;;;;;;;8.43;2.13;;;16.50;99.90;;;;;;2103487;28;20137;-62
2021/06/21 03:06:35;;;;;;;5.90;1.30;;;16.50;99.90;;;;;;2096989;28;20131;-62
2021/06/21 03:07:36;;;;;;;;;;;16.50;99.90;;;;;;2097136;28;20081;-62
2021/06/21 03:08:39;;;;;;;6.47;1.55;;;16.50;99.90;;;;;;2096889;28;19910;-62
2021/06/21 03:09:43;;;;;;;7.20;1.25;;;16.50;99.90;;;;;;2103444;28;20076;-62
2021/06/21 03:10:44;;;;;;;4.72;1.30;;;16.50;99.90;;;;;;2100660;28;20039;-62
2021/06/21 03:11:49;;;;;;;5.32;1.33;;;16.50;99.90;;;;;;2100059;28;20020;-62
2021/06/21 03:12:51;;;;;;;4.90;1.48;;;16.50;99.90;;;;;;2100055;28;20115;-62
2021/06/21 03:13:54;;;;;;;3.42;1.17;;;16.50;99.90;;;;;;2096881;28;20515;-62
2021/06/21 03:14:55;;;;;;;6.05;1.45;;;16.50;99.90;;;;;;2104421;28;20078;-62
2021/06/21 03:15:58;;;;;;;4.30;1.30;;;16.50;99.90;;;;;;2102392;28;20403;-62
2021/06/21 03:17:06;;;;;;;3.33;1.23;;;16.50;99.90;;;;;;2095886;28;21068;-63
2021/06/21 03:18:07;;;;;;;2.45;1.20;;;16.40;99.90;;;;;;2095629;28;20545;-63
2021/06/21 03:19:13;;;;;;;4.38;1.40;;;16.40;99.90;;;;;;2096467;28;20531;-61
2021/06/21 03:20:14;;;;;;;7.13;1.30;;;16.40;99.90;;;;;;2094932;28;20435;-62
2021/06/21 03:21:18;;;;;;;3.97;1.30;;;16.40;99.90;;;;;;2096269;28;20103;-61
2021/06/21 03:22:21;;;;;;;4.13;1.35;;;16.40;99.90;;;;;;2101006;28;20063;-61
2021/06/21 03:23:24;;;;;;;6.32;1.13;;;16.40;99.90;;;;;;2104594;28;20438;-61
2021/06/21 03:24:25;;;;;;;5.95;1.40;;;16.40;99.90;;;;;;2102513;28;20016;-61
2021/06/21 03:25:28;;;;;;;4.90;1.40;;;16.40;99.90;;;;;;2096008;28;20027;-61
2021/06/21 03:26:30;;;;;;;8.50;1.52;;;16.40;99.90;;;;;;2100979;28;20492;-61
2021/06/21 03:27:32;;;;;;;;;;;16.40;99.90;;;;;;2105382;28;20023;-62
2021/06/21 03:28:32;;;;;;;3.60;1.30;;;16.40;99.90;;;;;;2096146;28;19905;-61
2021/06/21 03:29:36;;;;;;;7.13;2.00;;;16.40;99.90;;;;;;2095673;28;20051;-61
2021/06/21 03:30:41;;;;;;;3.35;1.20;;;16.40;99.90;;;;;;2100935;28;20471;-62
2021/06/21 03:31:51;;;;;;;3.25;1.40;;;16.40;99.90;;;;;;2097638;28;20078;-61
2021/06/21 03:32:52;;;;;;;4.07;1.33;;;16.40;99.90;;;;;;2096472;28;20031;-61
2021/06/21 03:33:54;;;;;;;5.63;1.38;;;16.40;99.90;;;;;;2098711;28;20119;-61
2021/06/21 03:34:57;;;;;;;4.65;1.20;;;16.40;99.90;;;;;;2100853;28;20020;-61
2021/06/21 03:35:58;;;;;;;5.65;1.60;;;16.40;99.90;;;;;;2104516;28;20103;-61
2021/06/21 03:36:59;;;;;;;3.08;1.20;;;16.40;99.90;;;;;;2103646;28;20020;-63
2021/06/21 03:38:10;;;;;;;5.05;1.67;;;16.40;99.90;;;;;;2104023;28;20185;-62
2021/06/21 03:39:11;;;;;;;10.07;1.70;;;16.40;99.90;;;;;;2096530;28;20478;-61
2021/06/21 03:40:12;;;;;;;2.25;1.13;;;16.40;99.90;;;;;;2096344;28;20035;-61
2021/06/21 03:41:13;;;;;;;4.25;1.30;;;16.40;99.90;;;;;;2096005;28;20044;-61
2021/06/21 03:42:14;;;;;;;2.88;1.63;;;16.40;99.90;;;;;;2099273;28;20017;-62
2021/06/21 03:43:18;;;;;;;6.85;1.48;;;16.40;99.90;;;;;;2096425;28;20024;-61
2021/06/21 03:44:18;;;;;;;5.40;1.90;;;16.40;99.90;;;;;;2104164;28;20051;-61
2021/06/21 03:45:19;;;;;;;6.05;1.60;;;16.40;99.90;;;;;;2102066;28;20519;-61
2021/06/21 03:46:20;;;;;;;9.25;1.52;;;16.40;99.90;;;;;;2096640;28;20460;-61
2021/06/21 03:47:20;;;;;;;4.45;1.20;;;16.40;99.90;;;;;;2101184;28;20020;-62
2021/06/21 03:48:22;;;;;;;4.35;1.40;;;16.40;99.90;;;;;;2105058;28;20617;-63
2021/06/21 03:49:23;;;;;;;6.90;1.40;;;16.40;99.90;;;;;;2106281;28;20687;-62
2021/06/21 03:50:23;;;;;;;6.03;1.40;;;16.40;99.90;;;;;;2102489;28;20020;-60
2021/06/21 03:51:24;;;;;;;5.22;1.90;;;16.40;99.90;;;;;;2105823;28;20484;-61
2021/06/21 03:52:25;;;;;;;5.28;1.42;;;16.40;99.90;;;;;;2106022;28;20405;-61
2021/06/21 03:53:27;;;;;;;4.88;1.75;;;16.40;99.90;;;;;;2106642;28;20016;-62
2021/06/21 03:54:28;;;;;;;2.70;1.13;;;16.40;99.90;;;;;;2098493;28;20017;-62
2021/06/21 03:55:29;;;;;;;3.30;1.40;;;16.40;99.90;;;;;;2097574;28;20392;-61
2021/06/21 03:56:29;;;;;;;5.03;1.52;;;16.40;99.90;;;;;;2099267;28;20035;-62
2021/06/21 03:57:30;;;;;;;2.75;1.45;;;16.40;99.90;;;;;;2105179;28;20020;-61
2021/06/21 03:58:31;;;;;;;5.05;1.50;;;16.40;99.90;;;;;;2101234;28;20066;-61
2021/06/21 03:59:32;;;;;;;4.05;1.20;;;16.30;99.90;;;;;;2097007;28;20043;-63
2021/06/21 04:00:35;;;;;;;4.10;1.47;;;16.30;99.90;;;;;;2096416;28;20028;-63
2021/06/21 04:01:35;;;;;;;6.97;1.80;;;16.30;99.90;;;;;;2102965;28;20313;-63
2021/06/21 04:02:36;;;;;;;3.25;1.60;;;16.40;99.90;;;;;;2099937;28;20101;-61
2021/06/21 04:03:36;;;;;;;7.85;2.00;;;16.40;99.90;;;;;;2106127;28;20655;-61
2021/06/21 04:04:37;;;;;;;3.83;1.60;;;16.40;99.90;;;;;;2106071;28;20583;-61
2021/06/21 04:05:39;;;;;;;5.78;2.08;;;16.40;99.90;;;;;;2104538;28;20489;-62
2021/06/21 04:06:40;;;;;;;5.55;1.70;;;16.40;99.90;;;;;;2098173;28;20012;-61
2021/06/21 04:07:42;;;;;;;7.28;1.77;;;16.40;99.90;;;;;;2100001;28;20057;-61
2021/06/21 04:08:42;;;;;;;4.53;1.70;;;16.40;99.90;;;;;;2098487;28;20074;-62
2021/06/21 04:09:43;;;;;;;2.15;1.42;;;16.40;99.90;;;;;;2098670;28;20036;-62
2021/06/21 04:10:45;;;;;;;5.95;2.00;;;16.40;99.90;;;;;;2099164;28;20017;-62
2021/06/21 04:11:47;;;;;;;5.53;2.17;;;16.40;99.90;;;;;;2103875;28;20032;-62
2021/06/21 04:12:50;;;;;;;5.47;2.30;;;16.40;99.90;;;;;;2104829;28;20372;-61
2021/06/21 04:13:52;;;;;;;4.65;2.60;;;16.40;99.90;;;;;;2097939;28;20739;-62
2021/06/21 04:14:53;;;;;;;;;;;16.40;99.90;;;;;;2098097;28;20050;-62
2021/06/21 04:15:53;;;;;;;7.75;2.95;;;16.40;99.90;;;;;;2099532;28;20644;-64
2021/06/21 04:16:54;;;;;;;5.90;2.85;;;16.40;99.90;;;;;;2098594;28;20506;-61
2021/06/21 04:17:59;;;;;;;3.97;2.50;;;16.40;99.90;;;;;;2097546;28;20024;-60
2021/06/21 04:19:00;;;;;;;4.80;3.00;;;16.40;99.90;;;;;;2102809;28;20027;-62
2021/06/21 04:20:05;;;;;;;6.05;2.78;;;16.40;99.90;;;;;;2095750;28;20029;-61
2021/06/21 04:21:06;;;;;;;5.78;2.78;;;16.40;99.90;;;;;;2099823;28;20024;-62
2021/06/21 04:22:07;;;;;;;4.70;2.55;;;16.40;99.90;;;;;;2105444;28;20024;-62
2021/06/21 04:23:09;;;;;;;8.18;2.80;;;16.40;99.90;;;;;;2103283;28;20016;-62
2021/06/21 04:24:10;;;;;;;9.77;3.15;;;16.40;99.90;;;;;;2104949;28;20028;-62
2021/06/21 04:25:13;;;;;;;4.78;2.33;;;16.40;99.90;;;;;;2105715;28;20087;-62
2021/06/21 04:26:14;;;;;;;5.25;2.50;;;16.40;99.90;;;;;;2102470;28;20024;-61
2021/06/21 04:27:15;;;;;;;3.70;2.38;;;16.40;99.90;;;;;;2097922;28;20035;-62
2021/06/21 04:28:16;;;;;;;5.47;2.70;;;16.40;99.90;;;;;;2103236;28;20073;-61
2021/06/21 04:29:17;;;;;;;8.20;2.60;;;16.50;99.90;;;;;;2105141;28;20620;-61
2021/06/21 04:30:21;;;;;;;3.90;2.85;;;16.40;99.90;;;;;;2105749;28;20099;-62
2021/06/21 04:31:21;;;;;;;5.25;2.30;;;16.40;99.90;;;;;;2105874;28;20015;-62
2021/06/21 04:32:22;;;;;;;5.50;2.50;;;16.40;99.90;;;;;;2106324;28;20028;-62
2021/06/21 04:33:23;;;;;;;8.20;2.30;;;16.40;99.90;;;;;;2099434;28;20036;-62
2021/06/21 04:34:23;;;;;;;4.93;2.63;;;16.40;99.90;;;;;;2103664;28;20103;-62
2021/06/21 04:35:26;;;;;;;8.45;2.85;;;16.40;99.90;;;;;;2105872;28;20026;-62
2021/06/21 04:36:27;;;;;;;8.65;2.60;;;16.40;99.90;;;;;;2097170;28;20028;-62
2021/06/21 04:37:27;;;;;;;3.28;2.03;;;16.40;99.90;;;;;;2097942;28;20096;-62
2021/06/21 04:38:28;;;;;;;9.88;3.05;;;16.40;99.90;;;;;;2097025;28;20032;-62
2021/06/21 04:39:29;;;;;;;3.08;2.28;;;16.40;99.90;;;;;;2097553;28;20074;-62
2021/06/21 04:40:33;;;;;;;7.28;2.75;;;16.40;99.90;;;;;;2096599;28;20446;-62
2021/06/21 04:41:34;;;;;;;8.63;3.20;;;16.40;99.90;;;;;;2096783;28;20769;-62
2021/06/21 04:42:34;;;;;;;7.90;2.75;;;16.40;99.90;;;;;;2097229;28;20027;-62
2021/06/21 04:43:35;;;;;;;3.60;2.47;;;16.40;99.90;;;;;;2099544;28;20032;-62
2021/06/21 04:44:35;;;;;;;7.22;2.40;;;16.40;99.90;;;;;;2105356;28;20024;-62
2021/06/21 04:45:36;;;;;;;4.82;2.30;;;16.40;99.90;;;;;;2101744;28;20024;-61
2021/06/21 04:46:37;;;;;;;7.72;2.50;;;16.40;99.90;;;;;;2098718;28;20480;-62
2021/06/21 04:47:38;;;;;;;7.82;2.63;;;16.40;99.90;;;;;;2096627;28;20531;-62
2021/06/21 04:48:40;;;;;;;4.00;2.42;;;16.30;99.90;;;;;;2096810;28;20025;-62
2021/06/21 04:49:40;;;;;;;7.90;2.80;;;16.30;99.90;;;;;;2098245;28;20032;-62
2021/06/21 04:50:42;;;;;;;6.20;2.70;;;16.30;99.90;;;;;;2105716;28;20032;-62
2021/06/21 04:51:45;;;;;;;4.95;2.50;;;16.30;99.90;;;;;;2101797;28;20021;-61
2021/06/21 04:52:48;;;;;;;6.80;2.88;;;16.40;99.90;;;;;;2104234;28;20051;-61
2021/06/21 04:53:49;;;;;;;4.65;2.38;;;16.40;99.90;;;;;;2105070;28;20027;-61
2021/06/21 04:54:50;;;;;;;10.80;3.63;;;16.40;99.90;;;;;;2106282;28;20047;-62
2021/06/21 04:55:50;;;;;;;7.07;2.50;;;16.40;99.90;;;;;;2102328;28;20033;-61
2021/06/21 04:56:51;;;;;;;7.68;2.60;;;16.50;99.90;;;;;;2103239;28;20030;-63
2021/06/21 04:57:52;;;;;;;6.22;2.42;;;16.50;99.90;;;;;;2105162;28;20027;-61
2021/06/21 04:58:54;;;;;;;6.10;2.88;;;16.60;99.90;;;;;;2105631;28;20433;-61
2021/06/21 04:59:55;;;;;;;;;;;16.60;99.90;;;;;;2106283;28;20028;-62
2021/06/21 05:00:55;;;;;;;7.50;2.53;;;16.70;99.90;;;;;;2105802;28;19974;-61
2021/06/21 05:01:56;;;;;;;3.67;1.92;;;16.70;99.90;;;;;;2105533;28;20083;-61
2021/06/21 05:02:57;;;;;;;5.55;2.25;;;16.80;99.90;;;;;;2105634;28;20028;-62
2021/06/21 05:04:00;;;;;;;3.83;2.17;;;16.80;99.90;;;;;;2103158;28;20141;-61
2021/06/21 05:05:01;;;;;;;8.52;2.45;;;16.90;99.90;;;;;;2096695;28;20017;-61
2021/06/21 05:06:02;;;;;;;5.70;2.40;;;16.90;99.90;;;;;;2099769;28;20515;-61
2021/06/21 05:07:04;;;;;;;6.07;2.20;;;16.90;99.90;;;;;;2099256;28;20028;-62
2021/06/21 05:08:05;;;;;;;6.05;2.17;;;16.90;99.90;;;;;;2104204;28;20254;-61
2021/06/21 05:09:08;;;;;;;7.18;2.67;;;16.90;99.90;;;;;;2103005;28;20032;-62
2021/06/21 05:10:12;;;;;;;4.32;2.20;;;16.90;99.90;;;;;;2100458;28;20082;-61
2021/06/21 05:11:13;;;;;;;6.50;2.10;;;16.90;99.90;;;;;;2099568;28;20537;-62
2021/06/21 05:12:13;;;;;;;3.80;2.10;;;16.80;99.90;;;;;;2105334;28;20028;-62
2021/06/21 05:13:14;;;;;;;3.85;2.05;;;16.80;99.90;;;;;;2105874;28;20732;-62
2021/06/21 05:14:15;;;;;;;5.30;2.28;;;16.80;99.90;;;;;;2105483;28;20487;-62
2021/06/21 05:15:17;;;;;;;2.58;1.80;;;16.80;99.90;;;;;;2102539;28;20020;-61
2021/06/21 05:16:17;;;;;;;6.70;1.70;;;16.70;99.90;;;;;;2102507;28;20051;-62
2021/06/21 05:17:18;;;;;;;7.90;2.10;;;16.70;99.90;;;;;;2105619;28;20031;-61
2021/06/21 05:18:19;;;;;;;4.30;2.15;;;16.70;99.90;;;;;;2097359;28;20021;-61
2021/06/21 05:19:20;;;;;;;7.68;2.10;;;16.70;99.90;;;;;;2095177;28;20032;-60
2021/06/21 05:20:21;;;;;;;7.05;2.40;;;16.70;99.90;;;;;;2099733;28;20542;-61
2021/06/21 05:21:22;;;;;;;6.72;2.05;;;16.70;99.90;;;;;;2102405;28;20382;-62
2021/06/21 05:22:23;;;;;;;3.75;1.80;;;16.60;99.90;;;;;;2105879;28;20035;-61
2021/06/21 05:23:23;;;;;;;6.85;2.00;;;16.70;99.90;;;;;;2097442;28;20048;-62
2021/06/21 05:24:24;;;;;;;5.30;2.00;;;16.60;99.90;;;;;;2099550;28;20020;-62
2021/06/21 05:25:25;;;;;;;4.93;2.20;;;16.60;99.90;;;;;;2105824;28;20420;-62
2021/06/21 05:26:25;;;;;;;8.25;1.80;;;16.60;99.90;;;;;;2105660;28;20091;-62
2021/06/21 05:27:29;;;;;;;6.95;2.38;;;16.60;99.90;;;;;;2104809;28;20048;-62